Garden City Regional Airport
KGCK : rendu visible

Aérodrome :











RETROUVEZ-NOUS SUR...

 
LOGIN :

S'inscrire | Disclaimer

   EN    FR    IT 

 









Légende :    VFR   VFR Marginal   IFR   IFR Intensif   IFR Très Intensif
Visi : 
Plafond : 
>= 8 km
>= 3000ft
5 à 8 km
1000 à 3000 ft
1500m à 5 km
500 à 1000 ft
800 à 1500m
200 à 500 ft
< 800m
< 200 ft
Symboles :   Orages  Brouillard  Fortes neiges  Fortes précipitations  Vent > 20 kt






- Altitude de l'aérodrome : 2891 ft
- Code IATA : GCK


KGCK - Garden City Regional

DERNIER METAR :
  • 222254Z 07003KT 10SM OVC010 M02/M03 A3007 RMK AO2 SLP207 T10171033

METARs EXPIRÉS :
  • 222154Z 03004KT 10SM OVC010 M02/M03 A3008 RMK AO2 SLP211 T10171033
  • 222054Z 02004KT 10SM OVC010 M02/M03 A3009 RMK AO2 SLP211 T10171033 56023

TAF KGCK
Valide du 22 à 21h jusqu'au 23 à 18h UTC


222111Z 2221/2318 04008KT P6SM OVC010
FM222300 04008KT P6SM OVC030
FM230300 VRB06KT P6SM BKN050
FM231600 31012KT P6SM FEW250



MET'MAP, la Météo Aéronautique d'un coup d'oeil ! - Copyright ORBIFLY Décembre 2007 - Disclaimer

ORBIFLY MET'MAP TEAM :

Programmation & Développement : Alexandra Zaïnal
Conception & Développement : Baudouin d'Aumeries
Co-Programmation & Développement : Marc-Olivier Méhu
Soutien technique & logistique : Manuel Goepfert

Contact : metmap@orbifly.com




SOURCES & CREDITS :

   NOAA       Earth
Advisory